Hlavní strana
METAR-TAF:

METAR-TAF

Letiště :

Hagi, Japonsko

zeměpisná šířka: 34-40N, zeměpisná délka: 131-48E, výška: 54 m

Aktuální stav počasí

Zpráva byla vytvořena před 25 minutami, v 04:00 UTC
Západoseverozápadní vítr 14 kt
Teplota 16°C
Vlhkost vzduchu 59%
Tlak 1014 hPa
Viditelnost 10 km a více
Skoro jasno ve výšce 3500 ft

METAR: RJOW 070400Z 29014KT 9999 FEW035 16/08 Q1014

Čas: 13:25 (04:25 UTC)


TAF: chybějící

Stav a předpovědi počasí z více než 4 000 letišť (zprávy METAR a TAF).

Červené a žluté tečky na mapě představují dostupné meteorologické stanice.

Když kurzor umístíte na tečku, zobrazí se název stanice.

Pak kliknutím zobrazíte stav a předpověď počasí.

Chcete-li změnit mapu, kliknutím na zelené tlačítko se znaménkem +mapu přiblížíte, kliknutím na zelené tlačítko se znaménkem – mapu oddálíte a kliknutím na zelené šipky přejdete na sousední mapy.


METAR-TAF: